createdAt,value
2019-03-27T00:01:03.070Z,29.40
2019-03-27T00:05:06.789Z,18.70
2019-03-27T00:09:10.420Z,22.50
2019-03-27T00:13:14.021Z,38.92
2019-03-27T00:17:17.629Z,28.55
2019-03-27T00:21:21.347Z,30.92
2019-03-27T00:25:24.958Z,26.87
2019-03-27T00:29:28.570Z,19.37
2019-03-27T00:33:32.154Z,20.40
2019-03-27T00:37:36.211Z,17.95
2019-03-27T00:41:39.823Z,14.58
2019-03-27T00:45:43.437Z,17.70
2019-03-27T00:49:47.050Z,25.20
2019-03-27T00:53:50.765Z,15.23
2019-03-27T00:57:54.378Z,20.35
2019-03-27T01:01:58.098Z,19.55
2019-03-27T01:06:01.707Z,15.48
2019-03-27T01:10:06.195Z,23.38
2019-03-27T01:14:09.864Z,16.55
2019-03-27T01:18:13.565Z,18.98
2019-03-27T01:22:17.297Z,20.55
2019-03-27T01:26:20.906Z,20.17
2019-03-27T01:30:24.620Z,18.50
2019-03-27T01:34:28.232Z,18.90
2019-03-27T01:38:31.848Z,19.67
2019-03-27T01:42:35.567Z,22.62
2019-03-27T01:46:39.259Z,13.75
2019-03-27T01:50:42.893Z,19.37
2019-03-27T01:54:46.610Z,21.75
2019-03-27T01:58:50.238Z,18.05
2019-03-27T02:02:53.841Z,16.12
2019-03-27T02:06:57.556Z,17.30
2019-03-27T02:11:01.271Z,17.45
2019-03-27T02:15:08.262Z,26.90
2019-03-27T02:19:11.883Z,24.23
2019-03-27T02:23:15.701Z,23.62
2019-03-27T02:27:19.307Z,20.85
2019-03-27T02:31:22.925Z,18.92
2019-03-27T02:35:26.539Z,19.32
2019-03-27T02:39:30.155Z,24.50
2019-03-27T02:43:33.768Z,24.32
2019-03-27T02:47:37.693Z,27.00
2019-03-27T02:51:41.302Z,32.30
2019-03-27T02:55:45.133Z,27.22
2019-03-27T02:59:48.833Z,27.20
2019-03-27T03:03:52.386Z,26.25
2019-03-27T03:07:55.943Z,20.70
2019-03-27T03:11:59.774Z,26.93
2019-03-27T03:16:03.394Z,27.82
2019-03-27T03:20:08.953Z,30.80
2019-03-27T03:24:12.563Z,24.50
2019-03-27T03:28:16.181Z,20.95
2019-03-27T03:32:19.797Z,23.65
2019-03-27T03:36:23.511Z,31.23
2019-03-27T03:40:27.224Z,25.68
2019-03-27T03:44:30.946Z,33.75
2019-03-27T03:48:34.576Z,27.60
2019-03-27T03:52:38.379Z,25.35
2019-03-27T03:56:42.549Z,32.38
2019-03-27T04:00:46.738Z,30.37
2019-03-27T04:04:55.770Z,30.85
2019-03-27T04:08:59.379Z,43.48
2019-03-27T04:13:03.201Z,36.88
2019-03-27T04:17:17.035Z,43.02
2019-03-27T04:21:12.176Z,37.50
2019-03-27T04:25:15.782Z,39.13
2019-03-27T04:29:19.500Z,37.90
2019-03-27T04:33:23.111Z,44.85
2019-03-27T04:37:26.724Z,43.63
2019-03-27T04:41:30.340Z,38.17
2019-03-27T04:45:33.953Z,35.58
2019-03-27T04:49:37.565Z,35.68
2019-03-27T04:53:41.192Z,35.35
2019-03-27T04:57:44.792Z,43.27
2019-03-27T05:01:48.517Z,34.57
2019-03-27T05:05:52.233Z,43.87
2019-03-27T05:09:55.953Z,29.65
2019-03-27T05:13:59.560Z,41.18
2019-03-27T05:18:03.169Z,43.30
2019-03-27T05:22:06.993Z,36.23
2019-03-27T05:26:10.604Z,42.13
2019-03-27T05:30:15.754Z,44.75
2019-03-27T05:34:19.377Z,48.87
2019-03-27T05:38:22.989Z,35.33
2019-03-27T05:42:26.700Z,31.82
2019-03-27T05:46:30.321Z,42.90
2019-03-27T05:50:33.928Z,39.20
2019-03-27T05:54:37.554Z,34.85
2019-03-27T05:58:41.157Z,41.55
2019-03-27T06:02:44.870Z,39.85
2019-03-27T06:06:48.484Z,42.88
2019-03-27T06:10:52.208Z,33.70
2019-03-27T06:14:55.819Z,41.40
2019-03-27T06:18:59.431Z,42.27
2019-03-27T06:23:03.148Z,44.67
2019-03-27T06:27:06.776Z,39.98
2019-03-27T06:31:10.473Z,41.98
2019-03-27T06:35:14.293Z,35.48
2019-03-27T06:39:18.216Z,41.40
2019-03-27T06:43:22.306Z,34.10
2019-03-27T06:47:25.938Z,36.93
2019-03-27T06:51:39.515Z,37.73
2019-03-27T06:55:35.048Z,38.05
2019-03-27T06:59:38.677Z,30.02
2019-03-27T07:03:42.460Z,33.92
2019-03-27T07:07:46.073Z,25.00
2019-03-27T07:11:49.684Z,32.85
2019-03-27T07:15:53.298Z,28.92
2019-03-27T07:19:56.910Z,24.37
2019-03-27T07:24:00.923Z,21.00
2019-03-27T07:28:04.549Z,23.02
2019-03-27T07:32:08.170Z,31.05
2019-03-27T07:36:11.778Z,23.52
2019-03-27T07:40:15.596Z,19.75
2019-03-27T07:44:19.215Z,24.90
2019-03-27T07:48:22.928Z,21.30
2019-03-27T07:52:26.538Z,19.75
2019-03-27T07:56:30.154Z,23.42
2019-03-27T08:00:33.765Z,20.48
2019-03-27T08:04:37.381Z,21.75
2019-03-27T08:08:40.999Z,24.52
2019-03-27T08:12:44.715Z,20.97
2019-03-27T08:16:48.491Z,18.15
2019-03-27T08:20:52.144Z,21.82
2019-03-27T08:24:55.756Z,26.37
2019-03-27T08:28:59.378Z,16.10
2019-03-27T08:33:03.088Z,22.80
2019-03-27T08:37:06.700Z,24.90
2019-03-27T08:41:10.324Z,21.02
2019-03-27T08:45:14.439Z,20.48
2019-03-27T08:49:22.283Z,15.98
2019-03-27T08:53:23.512Z,22.45
2019-03-27T08:57:27.123Z,21.12
2019-03-27T09:01:30.843Z,18.27
2019-03-27T09:05:34.455Z,17.55
2019-03-27T09:09:38.070Z,20.90
2019-03-27T09:13:41.682Z,21.57
2019-03-27T09:17:45.312Z,20.03
2019-03-27T09:21:49.029Z,20.85
2019-03-27T09:25:52.737Z,19.60
2019-03-27T09:29:56.350Z,14.60
2019-03-27T09:34:00.164Z,19.05
2019-03-27T09:38:03.879Z,18.40
2019-03-27T09:42:07.598Z,18.23
2019-03-27T09:46:12.816Z,13.68
2019-03-27T09:50:16.673Z,17.75
2019-03-27T09:54:20.515Z,14.10
2019-03-27T09:58:24.215Z,17.65
2019-03-27T10:02:28.024Z,13.75
2019-03-27T10:06:31.639Z,15.85
2019-03-27T10:10:35.255Z,11.43
2019-03-27T10:14:38.863Z,14.60
2019-03-27T10:18:42.581Z,14.43
2019-03-27T10:22:46.134Z,20.10
2019-03-27T10:26:49.808Z,11.78
2019-03-27T10:30:53.543Z,9.63
2019-03-27T10:34:57.140Z,11.35
2019-03-27T10:39:00.846Z,11.53
2019-03-27T10:43:04.672Z,17.25
2019-03-27T10:47:08.594Z,13.98
2019-03-27T10:51:12.314Z,13.78
2019-03-27T10:55:16.028Z,12.45
2019-03-27T10:59:20.665Z,9.13
2019-03-27T11:03:24.378Z,12.68
2019-03-27T11:07:27.993Z,10.50
2019-03-27T11:11:31.607Z,9.28
2019-03-27T11:15:35.164Z,10.80
2019-03-27T11:19:38.843Z,8.68
2019-03-27T11:23:42.456Z,9.50
2019-03-27T11:27:46.012Z,7.60
2019-03-27T11:31:49.582Z,10.30
2019-03-27T11:35:53.345Z,6.45
2019-03-27T11:39:57.011Z,5.78
2019-03-27T11:44:00.673Z,10.15
2019-03-27T11:48:04.438Z,8.13
2019-03-27T11:52:08.408Z,6.17
2019-03-27T11:56:11.980Z,8.18
2019-03-27T12:00:15.973Z,7.97
2019-03-27T12:04:19.615Z,8.20
2019-03-27T12:08:23.239Z,10.32
2019-03-27T12:12:26.845Z,7.40
2019-03-27T12:16:30.385Z,6.80
2019-03-27T12:20:35.879Z,7.05
2019-03-27T12:24:43.222Z,8.90
2019-03-27T12:28:47.027Z,7.10
2019-03-27T12:32:51.094Z,8.85
2019-03-27T12:36:55.079Z,10.65
2019-03-27T12:40:59.397Z,8.60
2019-03-27T12:45:03.134Z,7.67
2019-03-27T12:49:06.875Z,8.58
2019-03-27T12:53:11.111Z,9.73
2019-03-27T12:57:15.047Z,5.22
2019-03-27T13:01:18.818Z,6.03
2019-03-27T13:05:22.743Z,4.25
2019-03-27T13:09:26.798Z,9.75
2019-03-27T13:13:30.375Z,7.15
2019-03-27T13:17:35.215Z,8.63
2019-03-27T13:21:38.944Z,4.85
2019-03-27T13:25:42.646Z,8.33
2019-03-27T13:29:46.573Z,10.87
2019-03-27T13:33:50.657Z,5.60
2019-03-27T13:37:54.571Z,7.40
2019-03-27T13:41:58.228Z,8.80
2019-03-27T13:46:01.950Z,7.12
2019-03-27T13:50:08.643Z,8.13
2019-03-27T13:54:12.243Z,8.65
2019-03-27T13:58:15.771Z,7.60
2019-03-27T14:02:19.860Z,6.30
2019-03-27T14:06:23.601Z,6.92
2019-03-27T14:10:27.317Z,13.03
2019-03-27T14:14:30.931Z,10.35
2019-03-27T14:18:34.750Z,11.10
2019-03-27T14:22:38.467Z,7.87
2019-03-27T14:26:45.361Z,5.87
2019-03-27T14:30:50.682Z,9.75
2019-03-27T14:34:54.427Z,7.85
2019-03-27T14:38:57.971Z,14.85
2019-03-27T14:43:01.658Z,7.67
2019-03-27T14:47:05.371Z,9.80
2019-03-27T14:51:09.291Z,15.18
2019-03-27T14:55:13.120Z,11.10
2019-03-27T14:59:17.032Z,10.88
2019-03-27T15:03:20.643Z,8.48
2019-03-27T15:07:24.259Z,11.35
2019-03-27T15:11:27.818Z,6.70
2019-03-27T15:15:31.592Z,11.03
2019-03-27T15:19:35.206Z,11.73
2019-03-27T15:23:38.818Z,8.30
2019-03-27T15:27:42.487Z,11.25
2019-03-27T15:31:46.146Z,7.80
2019-03-27T15:35:49.759Z,4.92
2019-03-27T15:39:53.328Z,6.72
2019-03-27T15:43:56.992Z,7.80
2019-03-27T15:48:01.436Z,7.28
2019-03-27T15:52:05.139Z,7.10
2019-03-27T15:56:08.879Z,6.87
2019-03-27T16:00:13.385Z,7.28
2019-03-27T16:04:17.003Z,12.15
2019-03-27T16:08:20.622Z,10.78
2019-03-27T16:12:24.239Z,8.30
2019-03-27T16:16:27.947Z,7.15
2019-03-27T16:20:31.559Z,11.22
2019-03-27T16:24:35.118Z,9.05
2019-03-27T16:28:38.791Z,10.03
2019-03-27T16:32:42.343Z,13.90
2019-03-27T16:36:47.141Z,9.30
2019-03-27T16:40:50.755Z,7.70
2019-03-27T16:44:54.380Z,7.97
2019-03-27T16:48:58.083Z,6.65
2019-03-27T16:53:03.691Z,9.08
2019-03-27T16:57:07.102Z,9.13
2019-03-27T17:01:12.010Z,9.03
2019-03-27T17:05:16.043Z,8.65
2019-03-27T17:09:19.739Z,8.88
2019-03-27T17:13:23.350Z,12.28
2019-03-27T17:17:27.255Z,7.83
2019-03-27T17:21:30.888Z,8.95
2019-03-27T17:25:38.171Z,10.50
2019-03-27T17:29:42.487Z,8.50
2019-03-27T17:33:46.437Z,10.63
2019-03-27T17:37:51.631Z,10.95
2019-03-27T17:41:57.741Z,11.57
2019-03-27T17:46:01.540Z,9.30
2019-03-27T17:50:07.336Z,8.83
2019-03-27T17:54:20.550Z,10.45
2019-03-27T17:58:16.950Z,11.50
2019-03-27T18:02:21.189Z,11.12
2019-03-27T18:06:24.980Z,9.80
2019-03-27T18:10:28.593Z,10.60
2019-03-27T18:14:33.799Z,10.80
2019-03-27T18:18:37.558Z,10.78
2019-03-27T18:22:41.215Z,14.80
2019-03-27T18:26:44.792Z,12.00
2019-03-27T18:30:48.399Z,11.70
2019-03-27T18:34:52.022Z,13.05
2019-03-27T18:38:56.052Z,11.05
2019-03-27T18:42:59.754Z,13.93
2019-03-27T18:47:03.954Z,13.32
2019-03-27T18:51:08.149Z,11.15
2019-03-27T18:55:25.511Z,16.15
2019-03-27T18:59:18.135Z,11.60
2019-03-27T19:03:23.080Z,14.50
2019-03-27T19:07:27.053Z,14.38
2019-03-27T19:11:31.401Z,13.70
2019-03-27T19:15:36.336Z,14.70
2019-03-27T19:19:40.570Z,13.80
2019-03-27T19:23:44.586Z,14.35
2019-03-27T19:27:48.457Z,14.53
2019-03-27T19:31:52.548Z,18.42
2019-03-27T19:35:56.771Z,18.85
2019-03-27T19:40:01.164Z,17.75
2019-03-27T19:44:05.959Z,16.73
2019-03-27T19:48:09.758Z,20.48
2019-03-27T19:52:13.478Z,16.95
2019-03-27T19:56:17.208Z,19.78
2019-03-27T20:00:21.582Z,18.33
2019-03-27T20:04:25.574Z,17.57
2019-03-27T20:08:29.569Z,20.35
2019-03-27T20:12:33.308Z,16.32
2019-03-27T20:16:37.105Z,19.67
2019-03-27T20:20:41.025Z,22.25
2019-03-27T20:24:45.062Z,25.50
2019-03-27T20:28:48.765Z,21.93
2019-03-27T20:32:52.738Z,23.00
2019-03-27T20:36:56.778Z,18.80
2019-03-27T20:41:00.973Z,18.32
2019-03-27T20:45:07.019Z,21.10
2019-03-27T20:49:10.749Z,21.20
2019-03-27T20:53:14.360Z,22.15
2019-03-27T20:57:19.789Z,22.20
2019-03-27T21:01:23.356Z,20.17
2019-03-27T21:05:27.231Z,18.10
2019-03-27T21:09:30.849Z,19.82
2019-03-27T21:13:34.563Z,21.75
2019-03-27T21:17:38.380Z,20.35
2019-03-27T21:21:42.915Z,22.17
2019-03-27T21:25:46.525Z,17.05
2019-03-27T21:29:50.141Z,19.67
2019-03-27T21:33:53.758Z,19.25
2019-03-27T21:37:57.855Z,27.15
2019-03-27T21:42:01.809Z,19.10
2019-03-27T21:46:05.415Z,21.80
2019-03-27T21:50:09.443Z,23.50
2019-03-27T21:54:13.160Z,21.73
2019-03-27T21:58:16.770Z,18.17
2019-03-27T22:02:20.694Z,23.98
2019-03-27T22:06:24.405Z,20.15
2019-03-27T22:10:27.981Z,25.62
2019-03-27T22:14:31.635Z,22.07
2019-03-27T22:18:35.247Z,27.50
2019-03-27T22:22:38.870Z,20.52
2019-03-27T22:26:42.513Z,20.20
2019-03-27T22:30:46.193Z,23.73
2019-03-27T22:34:49.805Z,21.42
2019-03-27T22:38:53.419Z,23.98
2019-03-27T22:42:57.119Z,21.87
2019-03-27T22:47:00.855Z,27.37
2019-03-27T22:51:04.579Z,32.00
2019-03-27T22:55:09.083Z,29.07
2019-03-27T22:59:12.726Z,37.67
2019-03-27T23:03:18.460Z,32.35
2019-03-27T23:07:22.202Z,29.20
2019-03-27T23:11:25.921Z,27.50
2019-03-27T23:15:29.533Z,23.95
2019-03-27T23:19:33.245Z,34.15
2019-03-27T23:23:36.865Z,26.62
2019-03-27T23:27:40.577Z,31.65
2019-03-27T23:31:44.305Z,31.35
2019-03-27T23:35:48.010Z,28.05
2019-03-27T23:39:51.629Z,30.30
2019-03-27T23:43:55.342Z,37.33
2019-03-27T23:47:58.954Z,32.15
2019-03-27T23:52:02.671Z,40.63
2019-03-27T23:56:16.039Z,27.13
